Terminal Aerodrome Forecast
Issued by NWS

Home | Current Version | Previous Version | Text Only | Print | Product List | Glossary On
Versions: 1 2 3 4 5 6 7 8 9 10 11 12 13 14
000
FTUS45 KBOI 191120
TAFMYL
TAF
KMYL 191120Z 1912/2012 16007KT 1 1/2SM -SN BR SCT005 OVC015
      TEMPO 1912/1916 1SM -SN BR VV005
     FM191600 17006KT 3SM -SHSN OVC015
     FM192000 17006KT 5SM BR OVC015
      TEMPO 1920/1924 1SM -SN BR OVC010
     FM200200 VRB04KT P6SM VCSH SCT005 OVC015=

USA.gov is the U.S. government's official web portal to all federal, state and local government web resources and services.